sensor_id;sensor_type;location;lat;lon;timestamp;temperature;humidity
53645;DHT22;39547;45.554;12.068;2023-02-23T00:05:21;10.70;83.00
53645;DHT22;39547;45.554;12.068;2023-02-23T00:11:23;10.70;83.00
53645;DHT22;39547;45.554;12.068;2023-02-23T00:17:27;10.70;83.00
53645;DHT22;39547;45.554;12.068;2023-02-23T00:23:31;10.70;82.50
53645;DHT22;39547;45.554;12.068;2023-02-23T00:29:33;10.60;82.70
53645;DHT22;39547;45.554;12.068;2023-02-23T00:35:39;10.60;83.00
53645;DHT22;39547;45.554;12.068;2023-02-23T00:41:41;10.60;83.10
53645;DHT22;39547;45.554;12.068;2023-02-23T00:47:43;10.50;83.00
53645;DHT22;39547;45.554;12.068;2023-02-23T00:53:48;10.50;83.00
53645;DHT22;39547;45.554;12.068;2023-02-23T00:59:49;10.40;83.20
53645;DHT22;39547;45.554;12.068;2023-02-23T01:05:51;10.40;83.20
53645;DHT22;39547;45.554;12.068;2023-02-23T01:11:54;10.30;83.30
53645;DHT22;39547;45.554;12.068;2023-02-23T01:17:56;10.30;83.50
53645;DHT22;39547;45.554;12.068;2023-02-23T01:23:58;10.20;83.40
53645;DHT22;39547;45.554;12.068;2023-02-23T01:30:00;10.20;83.40
53645;DHT22;39547;45.554;12.068;2023-02-23T01:36:01;10.20;83.50
53645;DHT22;39547;45.554;12.068;2023-02-23T01:42:03;10.10;83.60
53645;DHT22;39547;45.554;12.068;2023-02-23T01:48:12;10.00;83.70
53645;DHT22;39547;45.554;12.068;2023-02-23T01:54:26;9.90;83.90
53645;DHT22;39547;45.554;12.068;2023-02-23T02:00:29;9.80;83.90
53645;DHT22;39547;45.554;12.068;2023-02-23T02:06:37;9.70;84.00
53645;DHT22;39547;45.554;12.068;2023-02-23T02:12:44;9.70;84.10
53645;DHT22;39547;45.554;12.068;2023-02-23T02:37:34;9.40;84.50
53645;DHT22;39547;45.554;12.068;2023-02-23T02:43:59;9.40;84.50
53645;DHT22;39547;45.554;12.068;2023-02-23T02:56:17;9.20;84.50
53645;DHT22;39547;45.554;12.068;2023-02-23T03:02:22;9.20;84.40
53645;DHT22;39547;45.554;12.068;2023-02-23T03:15:54;9.00;84.40
53645;DHT22;39547;45.554;12.068;2023-02-23T03:22:19;8.90;84.60
53645;DHT22;39547;45.554;12.068;2023-02-23T03:28:55;8.90;84.70
53645;DHT22;39547;45.554;12.068;2023-02-23T03:35:39;8.90;84.90
53645;DHT22;39547;45.554;12.068;2023-02-23T03:42:12;8.90;85.00
53645;DHT22;39547;45.554;12.068;2023-02-23T03:48:35;8.90;85.00
53645;DHT22;39547;45.554;12.068;2023-02-23T03:55:01;8.80;85.20
53645;DHT22;39547;45.554;12.068;2023-02-23T04:01:22;8.80;85.30
53645;DHT22;39547;45.554;12.068;2023-02-23T04:07:45;8.80;85.50
53645;DHT22;39547;45.554;12.068;2023-02-23T04:14:12;8.90;85.70
53645;DHT22;39547;45.554;12.068;2023-02-23T04:20:16;9.00;85.60
53645;DHT22;39547;45.554;12.068;2023-02-23T04:26:17;9.00;85.80
53645;DHT22;39547;45.554;12.068;2023-02-23T04:32:19;9.10;85.80
53645;DHT22;39547;45.554;12.068;2023-02-23T04:38:23;9.20;86.00
53645;DHT22;39547;45.554;12.068;2023-02-23T04:44:24;9.20;85.90
53645;DHT22;39547;45.554;12.068;2023-02-23T04:50:26;9.20;86.00
53645;DHT22;39547;45.554;12.068;2023-02-23T04:56:27;9.20;86.10
53645;DHT22;39547;45.554;12.068;2023-02-23T05:02:29;9.30;86.20
53645;DHT22;39547;45.554;12.068;2023-02-23T05:08:30;9.40;86.30
53645;DHT22;39547;45.554;12.068;2023-02-23T05:14:31;9.30;85.70
53645;DHT22;39547;45.554;12.068;2023-02-23T05:20:33;9.20;85.70
53645;DHT22;39547;45.554;12.068;2023-02-23T05:26:34;9.20;85.80
53645;DHT22;39547;45.554;12.068;2023-02-23T05:32:36;9.10;86.10
53645;DHT22;39547;45.554;12.068;2023-02-23T05:38:38;9.20;86.30
53645;DHT22;39547;45.554;12.068;2023-02-23T05:44:40;9.20;86.40
53645;DHT22;39547;45.554;12.068;2023-02-23T05:50:41;9.20;86.50
53645;DHT22;39547;45.554;12.068;2023-02-23T05:56:43;9.20;86.50
53645;DHT22;39547;45.554;12.068;2023-02-23T06:02:44;9.20;86.50
53645;DHT22;39547;45.554;12.068;2023-02-23T06:08:46;9.20;86.50
53645;DHT22;39547;45.554;12.068;2023-02-23T06:14:47;9.30;86.70
53645;DHT22;39547;45.554;12.068;2023-02-23T06:20:50;9.30;86.70
53645;DHT22;39547;45.554;12.068;2023-02-23T06:26:52;9.30;86.80
53645;DHT22;39547;45.554;12.068;2023-02-23T06:32:53;9.30;86.80
53645;DHT22;39547;45.554;12.068;2023-02-23T06:38:56;9.30;86.80
53645;DHT22;39547;45.554;12.068;2023-02-23T06:44:58;9.30;86.90
53645;DHT22;39547;45.554;12.068;2023-02-23T06:50:59;9.40;86.90
53645;DHT22;39547;45.554;12.068;2023-02-23T06:57:01;9.50;87.00
53645;DHT22;39547;45.554;12.068;2023-02-23T07:03:02;9.50;87.00
53645;DHT22;39547;45.554;12.068;2023-02-23T07:09:04;9.60;87.00
53645;DHT22;39547;45.554;12.068;2023-02-23T07:15:06;9.70;87.00
53645;DHT22;39547;45.554;12.068;2023-02-23T07:21:07;9.70;87.00
53645;DHT22;39547;45.554;12.068;2023-02-23T07:27:09;9.70;86.90
53645;DHT22;39547;45.554;12.068;2023-02-23T07:33:11;9.80;86.80
53645;DHT22;39547;45.554;12.068;2023-02-23T07:39:12;10.00;86.90
53645;DHT22;39547;45.554;12.068;2023-02-23T07:45:14;10.10;86.90
53645;DHT22;39547;45.554;12.068;2023-02-23T07:51:17;10.20;86.90
53645;DHT22;39547;45.554;12.068;2023-02-23T07:57:19;10.30;86.90
53645;DHT22;39547;45.554;12.068;2023-02-23T08:03:21;10.40;86.70
53645;DHT22;39547;45.554;12.068;2023-02-23T08:09:22;10.60;86.60
53645;DHT22;39547;45.554;12.068;2023-02-23T08:15:25;10.70;86.50
53645;DHT22;39547;45.554;12.068;2023-02-23T08:21:33;10.80;86.00
53645;DHT22;39547;45.554;12.068;2023-02-23T08:27:42;10.90;86.10
53645;DHT22;39547;45.554;12.068;2023-02-23T08:33:45;11.00;86.00
53645;DHT22;39547;45.554;12.068;2023-02-23T08:39:50;11.20;85.90
53645;DHT22;39547;45.554;12.068;2023-02-23T08:45:52;11.40;85.90
53645;DHT22;39547;45.554;12.068;2023-02-23T08:51:57;11.50;85.30
53645;DHT22;39547;45.554;12.068;2023-02-23T08:58:01;11.60;85.60
53645;DHT22;39547;45.554;12.068;2023-02-23T09:04:04;11.70;85.40
53645;DHT22;39547;45.554;12.068;2023-02-23T09:10:09;11.90;85.30
53645;DHT22;39547;45.554;12.068;2023-02-23T09:16:12;12.00;85.10
53645;DHT22;39547;45.554;12.068;2023-02-23T09:22:15;12.10;84.80
53645;DHT22;39547;45.554;12.068;2023-02-23T09:28:19;12.20;84.60
53645;DHT22;39547;45.554;12.068;2023-02-23T09:34:21;12.40;84.40
53645;DHT22;39547;45.554;12.068;2023-02-23T09:40:28;12.50;84.30
53645;DHT22;39547;45.554;12.068;2023-02-23T09:53:11;12.70;83.90
53645;DHT22;39547;45.554;12.068;2023-02-23T09:59:16;12.70;83.40
53645;DHT22;39547;45.554;12.068;2023-02-23T10:05:18;12.80;83.60
53645;DHT22;39547;45.554;12.068;2023-02-23T10:11:39;12.90;83.50
53645;DHT22;39547;45.554;12.068;2023-02-23T10:24:27;13.10;83.10
53645;DHT22;39547;45.554;12.068;2023-02-23T10:30:33;13.20;82.90
53645;DHT22;39547;45.554;12.068;2023-02-23T10:36:57;13.20;82.60
53645;DHT22;39547;45.554;12.068;2023-02-23T10:43:01;13.20;82.20
53645;DHT22;39547;45.554;12.068;2023-02-23T10:49:03;13.20;82.10
53645;DHT22;39547;45.554;12.068;2023-02-23T10:55:23;13.20;82.20
53645;DHT22;39547;45.554;12.068;2023-02-23T11:01:34;13.20;82.20
53645;DHT22;39547;45.554;12.068;2023-02-23T11:07:36;13.20;82.20
53645;DHT22;39547;45.554;12.068;2023-02-23T11:13:40;13.30;82.20
53645;DHT22;39547;45.554;12.068;2023-02-23T11:19:42;13.30;81.00
53645;DHT22;39547;45.554;12.068;2023-02-23T11:25:44;13.40;81.20
53645;DHT22;39547;45.554;12.068;2023-02-23T11:31:49;13.50;81.40
53645;DHT22;39547;45.554;12.068;2023-02-23T11:37:53;13.70;81.40
53645;DHT22;39547;45.554;12.068;2023-02-23T11:43:58;13.80;80.90
53645;DHT22;39547;45.554;12.068;2023-02-23T11:50:02;13.80;81.00
53645;DHT22;39547;45.554;12.068;2023-02-23T11:56:06;13.90;81.00
53645;DHT22;39547;45.554;12.068;2023-02-23T12:08:42;14.10;79.40
53645;DHT22;39547;45.554;12.068;2023-02-23T12:14:49;14.20;78.90
53645;DHT22;39547;45.554;12.068;2023-02-23T12:20:54;14.30;78.60
53645;DHT22;39547;45.554;12.068;2023-02-23T12:27:15;14.30;77.80
53645;DHT22;39547;45.554;12.068;2023-02-23T12:39:43;14.20;77.70
53645;DHT22;39547;45.554;12.068;2023-02-23T12:45:55;14.20;78.40
53645;DHT22;39547;45.554;12.068;2023-02-23T12:52:08;14.20;76.70
53645;DHT22;39547;45.554;12.068;2023-02-23T12:59:16;14.20;77.60
53645;DHT22;39547;45.554;12.068;2023-02-23T13:18:26;14.80;77.10
53645;DHT22;39547;45.554;12.068;2023-02-23T13:24:09;14.80;76.00
53645;DHT22;39547;45.554;12.068;2023-02-23T13:30:13;14.80;74.90
53645;DHT22;39547;45.554;12.068;2023-02-23T13:36:17;14.80;75.30
53645;DHT22;39547;45.554;12.068;2023-02-23T13:54:55;14.70;74.70
53645;DHT22;39547;45.554;12.068;2023-02-23T14:01:13;14.60;75.50
53645;DHT22;39547;45.554;12.068;2023-02-23T14:07:28;14.60;75.40
53645;DHT22;39547;45.554;12.068;2023-02-23T14:13:33;14.50;74.30
53645;DHT22;39547;45.554;12.068;2023-02-23T14:19:37;14.40;74.90
53645;DHT22;39547;45.554;12.068;2023-02-23T14:25:48;14.30;75.10
53645;DHT22;39547;45.554;12.068;2023-02-23T14:38:30;14.40;75.70
53645;DHT22;39547;45.554;12.068;2023-02-23T14:44:36;14.50;76.20
53645;DHT22;39547;45.554;12.068;2023-02-23T14:50:43;14.50;76.20
53645;DHT22;39547;45.554;12.068;2023-02-23T14:56:46;14.30;75.20
53645;DHT22;39547;45.554;12.068;2023-02-23T15:03:08;14.20;76.10
53645;DHT22;39547;45.554;12.068;2023-02-23T15:09:23;14.10;76.40
53645;DHT22;39547;45.554;12.068;2023-02-23T15:15:25;14.00;76.50
53645;DHT22;39547;45.554;12.068;2023-02-23T15:21:27;13.90;76.80
53645;DHT22;39547;45.554;12.068;2023-02-23T15:27:36;13.80;77.10
53645;DHT22;39547;45.554;12.068;2023-02-23T15:33:42;13.70;77.50
53645;DHT22;39547;45.554;12.068;2023-02-23T15:40:00;13.70;77.80
53645;DHT22;39547;45.554;12.068;2023-02-23T15:46:04;13.60;77.90
53645;DHT22;39547;45.554;12.068;2023-02-23T15:52:08;13.60;78.10
53645;DHT22;39547;45.554;12.068;2023-02-23T15:58:30;13.50;78.40
53645;DHT22;39547;45.554;12.068;2023-02-23T16:04:32;13.30;78.50
53645;DHT22;39547;45.554;12.068;2023-02-23T16:10:43;13.30;78.80
53645;DHT22;39547;45.554;12.068;2023-02-23T16:16:46;13.20;79.00
53645;DHT22;39547;45.554;12.068;2023-02-23T16:22:51;13.00;79.20
53645;DHT22;39547;45.554;12.068;2023-02-23T16:28:59;12.90;79.40
53645;DHT22;39547;45.554;12.068;2023-02-23T16:35:13;12.70;79.70
53645;DHT22;39547;45.554;12.068;2023-02-23T16:41:18;12.60;80.00
53645;DHT22;39547;45.554;12.068;2023-02-23T16:53:22;12.30;80.40
53645;DHT22;39547;45.554;12.068;2023-02-23T16:59:24;12.20;80.50
53645;DHT22;39547;45.554;12.068;2023-02-23T17:05:26;12.20;80.90
53645;DHT22;39547;45.554;12.068;2023-02-23T17:11:28;12.00;81.10
53645;DHT22;39547;45.554;12.068;2023-02-23T17:17:30;11.90;81.20
53645;DHT22;39547;45.554;12.068;2023-02-23T17:23:31;11.90;81.40
53645;DHT22;39547;45.554;12.068;2023-02-23T17:29:42;11.80;81.60
53645;DHT22;39547;45.554;12.068;2023-02-23T17:35:44;11.70;81.70
53645;DHT22;39547;45.554;12.068;2023-02-23T17:41:46;11.70;81.90
53645;DHT22;39547;45.554;12.068;2023-02-23T17:47:47;11.70;82.00
53645;DHT22;39547;45.554;12.068;2023-02-23T17:53:49;11.60;82.10
53645;DHT22;39547;45.554;12.068;2023-02-23T17:59:51;11.60;82.30
53645;DHT22;39547;45.554;12.068;2023-02-23T18:05:52;11.50;82.30
53645;DHT22;39547;45.554;12.068;2023-02-23T18:11:54;11.50;82.50
53645;DHT22;39547;45.554;12.068;2023-02-23T18:17:56;11.40;82.50
53645;DHT22;39547;45.554;12.068;2023-02-23T18:23:58;11.40;82.60
53645;DHT22;39547;45.554;12.068;2023-02-23T18:29:59;11.30;82.70
53645;DHT22;39547;45.554;12.068;2023-02-23T18:36:01;11.30;82.80
53645;DHT22;39547;45.554;12.068;2023-02-23T18:42:04;11.30;82.80
53645;DHT22;39547;45.554;12.068;2023-02-23T18:48:05;11.30;83.00
53645;DHT22;39547;45.554;12.068;2023-02-23T18:54:12;11.30;83.00
53645;DHT22;39547;45.554;12.068;2023-02-23T19:00:17;11.30;83.00
53645;DHT22;39547;45.554;12.068;2023-02-23T19:06:20;11.20;83.00
53645;DHT22;39547;45.554;12.068;2023-02-23T19:12:22;11.20;83.10
53645;DHT22;39547;45.554;12.068;2023-02-23T19:18:24;11.20;83.10
53645;DHT22;39547;45.554;12.068;2023-02-23T19:24:27;11.20;83.10
53645;DHT22;39547;45.554;12.068;2023-02-23T19:30:29;11.20;83.10
53645;DHT22;39547;45.554;12.068;2023-02-23T19:36:30;11.10;83.20
53645;DHT22;39547;45.554;12.068;2023-02-23T19:42:34;11.00;83.20
53645;DHT22;39547;45.554;12.068;2023-02-23T19:48:37;11.00;83.20
53645;DHT22;39547;45.554;12.068;2023-02-23T19:54:38;11.00;83.30
53645;DHT22;39547;45.554;12.068;2023-02-23T20:00:40;10.90;83.30
53645;DHT22;39547;45.554;12.068;2023-02-23T20:06:42;10.80;83.30
53645;DHT22;39547;45.554;12.068;2023-02-23T20:12:47;10.80;83.30
53645;DHT22;39547;45.554;12.068;2023-02-23T20:18:48;10.60;83.10
53645;DHT22;39547;45.554;12.068;2023-02-23T20:24:49;10.50;83.00
53645;DHT22;39547;45.554;12.068;2023-02-23T20:30:51;10.40;83.40
53645;DHT22;39547;45.554;12.068;2023-02-23T20:36:53;10.30;83.40
53645;DHT22;39547;45.554;12.068;2023-02-23T20:42:55;10.20;83.60
53645;DHT22;39547;45.554;12.068;2023-02-23T20:48:57;10.20;83.80
53645;DHT22;39547;45.554;12.068;2023-02-23T20:54:59;10.20;84.00
53645;DHT22;39547;45.554;12.068;2023-02-23T21:01:00;10.10;84.10
53645;DHT22;39547;45.554;12.068;2023-02-23T21:07:06;10.10;84.10
53645;DHT22;39547;45.554;12.068;2023-02-23T21:13:09;10.10;84.30
53645;DHT22;39547;45.554;12.068;2023-02-23T21:19:16;10.20;84.40
53645;DHT22;39547;45.554;12.068;2023-02-23T21:25:19;10.20;84.00
53645;DHT22;39547;45.554;12.068;2023-02-23T21:31:20;10.10;84.20
53645;DHT22;39547;45.554;12.068;2023-02-23T21:37:22;10.00;84.20
53645;DHT22;39547;45.554;12.068;2023-02-23T21:43:23;9.90;84.30
53645;DHT22;39547;45.554;12.068;2023-02-23T21:49:28;9.80;84.40
53645;DHT22;39547;45.554;12.068;2023-02-23T21:55:29;9.80;84.50
53645;DHT22;39547;45.554;12.068;2023-02-23T22:01:33;9.90;84.70
53645;DHT22;39547;45.554;12.068;2023-02-23T22:07:35;9.90;84.50
53645;DHT22;39547;45.554;12.068;2023-02-23T22:13:36;9.90;84.50
53645;DHT22;39547;45.554;12.068;2023-02-23T22:19:38;9.90;84.60
53645;DHT22;39547;45.554;12.068;2023-02-23T22:25:39;9.90;84.40
53645;DHT22;39547;45.554;12.068;2023-02-23T22:31:40;9.90;84.50
53645;DHT22;39547;45.554;12.068;2023-02-23T22:37:42;9.90;84.50
53645;DHT22;39547;45.554;12.068;2023-02-23T22:43:44;10.00;84.50
53645;DHT22;39547;45.554;12.068;2023-02-23T22:49:46;9.90;84.50
53645;DHT22;39547;45.554;12.068;2023-02-23T22:55:49;9.90;84.50
53645;DHT22;39547;45.554;12.068;2023-02-23T23:01:54;10.00;84.60
53645;DHT22;39547;45.554;12.068;2023-02-23T23:07:56;10.00;84.60
53645;DHT22;39547;45.554;12.068;2023-02-23T23:13:58;10.00;84.60
53645;DHT22;39547;45.554;12.068;2023-02-23T23:20:03;10.10;84.60
53645;DHT22;39547;45.554;12.068;2023-02-23T23:26:13;10.10;84.60
53645;DHT22;39547;45.554;12.068;2023-02-23T23:32:16;10.10;84.50
53645;DHT22;39547;45.554;12.068;2023-02-23T23:38:18;10.10;84.40
53645;DHT22;39547;45.554;12.068;2023-02-23T23:44:22;10.10;84.40
53645;DHT22;39547;45.554;12.068;2023-02-23T23:50:24;10.00;84.50
53645;DHT22;39547;45.554;12.068;2023-02-23T23:56:28;9.90;84.40
